Weather at Panensky Tynec Airport

Public forecast

Using degrees Celsius for public forecast. Weather courtesy of forecast.io.

Closest aviation weather report (METAR) to Panensky Tynec Airport

Closest report is Václav Havel Airport Prague, 17.6 nm (32.5 km) SE. Retrieved 2020/11/23 15:30 UTC (7 minutes ago):

LKPR 231530Z 27006KT 9999 FEW030 04/01 Q1028 NOSIG

Closest aviation forecast (TAF) to Panensky Tynec Airport

Closest forecast is Václav Havel Airport Prague, 17.6 nm (32.5 km) SE. Retrieved 2020/11/23 12:06 UTC (4 hours ago):

TAF LKPR 231100Z 2312/2418 30010KT 9999 BKN030 BECMG 2314/2316 SCT030 BECMG 2320/2322 22007KT CAVOK BECMG 2323/2401 4000 MIFG SCT003 BECMG 2401/2403 0700 FZFG OVC002 TEMPO 2404/2409 0300 FZFG VV001 BECMG 2409/2411 1700 BR BKN005 BECMG 2411/2413 9999 FEW006